sensor_id;sensor_type;location;lat;lon;timestamp;temperature;humidity
9861;DHT22;4969;52.304;4.968;2023-03-01T00:00:06;3.12;83.35
9861;DHT22;4969;52.304;4.968;2023-03-01T00:02:35;4.05;83.03
9861;DHT22;4969;52.304;4.968;2023-03-01T00:05:01;4.25;80.11
9861;DHT22;4969;52.304;4.968;2023-03-01T00:07:28;4.02;79.01
9861;DHT22;4969;52.304;4.968;2023-03-01T00:09:55;4.09;79.40
9861;DHT22;4969;52.304;4.968;2023-03-01T00:12:21;4.11;78.53
9861;DHT22;4969;52.304;4.968;2023-03-01T00:14:48;3.99;79.57
9861;DHT22;4969;52.304;4.968;2023-03-01T00:17:14;4.14;78.75
9861;DHT22;4969;52.304;4.968;2023-03-01T00:19:43;4.30;79.18
9861;DHT22;4969;52.304;4.968;2023-03-01T00:22:10;5.43;80.08
9861;DHT22;4969;52.304;4.968;2023-03-01T00:24:36;5.29;76.90
9861;DHT22;4969;52.304;4.968;2023-03-01T00:27:03;4.99;76.04
9861;DHT22;4969;52.304;4.968;2023-03-01T00:29:29;5.25;76.80
9861;DHT22;4969;52.304;4.968;2023-03-01T00:31:56;5.08;74.97
9861;DHT22;4969;52.304;4.968;2023-03-01T00:34:22;4.94;75.82
9861;DHT22;4969;52.304;4.968;2023-03-01T00:36:50;5.12;74.97
9861;DHT22;4969;52.304;4.968;2023-03-01T00:39:17;4.84;74.45
9861;DHT22;4969;52.304;4.968;2023-03-01T00:41:43;5.13;75.85
9861;DHT22;4969;52.304;4.968;2023-03-01T00:44:10;4.94;74.06
9861;DHT22;4969;52.304;4.968;2023-03-01T00:46:38;4.95;75.45
9861;DHT22;4969;52.304;4.968;2023-03-01T00:49:05;4.19;73.25
9861;DHT22;4969;52.304;4.968;2023-03-01T00:51:31;3.90;75.69
9861;DHT22;4969;52.304;4.968;2023-03-01T00:54:01;4.01;77.24
9861;DHT22;4969;52.304;4.968;2023-03-01T00:56:27;4.45;76.85
9861;DHT22;4969;52.304;4.968;2023-03-01T00:58:54;4.16;75.27
9861;DHT22;4969;52.304;4.968;2023-03-01T01:01:23;5.05;76.80
9861;DHT22;4969;52.304;4.968;2023-03-01T01:03:54;4.25;75.46
9861;DHT22;4969;52.304;4.968;2023-03-01T01:06:22;4.56;76.03
9861;DHT22;4969;52.304;4.968;2023-03-01T01:08:50;4.61;75.46
9861;DHT22;4969;52.304;4.968;2023-03-01T01:11:19;4.61;75.41
9861;DHT22;4969;52.304;4.968;2023-03-01T01:13:47;4.76;76.81
9861;DHT22;4969;52.304;4.968;2023-03-01T01:16:15;4.50;74.41
9861;DHT22;4969;52.304;4.968;2023-03-01T01:18:42;3.95;74.98
9861;DHT22;4969;52.304;4.968;2023-03-01T01:21:10;3.46;76.13
9861;DHT22;4969;52.304;4.968;2023-03-01T01:23:37;3.56;77.48
9861;DHT22;4969;52.304;4.968;2023-03-01T01:26:06;3.99;78.94
9861;DHT22;4969;52.304;4.968;2023-03-01T01:28:34;4.57;76.39
9861;DHT22;4969;52.304;4.968;2023-03-01T01:31:01;4.21;76.01
9861;DHT22;4969;52.304;4.968;2023-03-01T01:33:27;4.30;76.94
9861;DHT22;4969;52.304;4.968;2023-03-01T01:35:54;4.69;75.94
9861;DHT22;4969;52.304;4.968;2023-03-01T01:38:21;4.60;75.75
9861;DHT22;4969;52.304;4.968;2023-03-01T01:40:48;4.66;73.49
9861;DHT22;4969;52.304;4.968;2023-03-01T01:43:19;4.21;73.74
9861;DHT22;4969;52.304;4.968;2023-03-01T01:45:48;4.32;75.36
9861;DHT22;4969;52.304;4.968;2023-03-01T01:48:18;4.59;74.70
9861;DHT22;4969;52.304;4.968;2023-03-01T01:50:50;4.60;74.88
9861;DHT22;4969;52.304;4.968;2023-03-01T01:53:19;5.42;76.57
9861;DHT22;4969;52.304;4.968;2023-03-01T01:55:50;4.67;73.79
9861;DHT22;4969;52.304;4.968;2023-03-01T01:58:19;4.46;74.29
9861;DHT22;4969;52.304;4.968;2023-03-01T02:00:49;4.70;74.71
9861;DHT22;4969;52.304;4.968;2023-03-01T02:03:19;4.45;74.70
9861;DHT22;4969;52.304;4.968;2023-03-01T02:05:49;4.21;75.69
9861;DHT22;4969;52.304;4.968;2023-03-01T02:08:19;4.84;76.32
9861;DHT22;4969;52.304;4.968;2023-03-01T02:10:48;4.87;74.53
9861;DHT22;4969;52.304;4.968;2023-03-01T02:13:15;4.52;73.89
9861;DHT22;4969;52.304;4.968;2023-03-01T02:15:42;4.33;74.47
9861;DHT22;4969;52.304;4.968;2023-03-01T02:18:13;3.73;73.31
9861;DHT22;4969;52.304;4.968;2023-03-01T02:20:46;3.74;75.62
9861;DHT22;4969;52.304;4.968;2023-03-01T02:23:15;3.67;75.80
9861;DHT22;4969;52.304;4.968;2023-03-01T02:25:47;3.78;76.46
9861;DHT22;4969;52.304;4.968;2023-03-01T02:28:24;4.21;77.29
9861;DHT22;4969;52.304;4.968;2023-03-01T02:30:51;4.88;75.92
9861;DHT22;4969;52.304;4.968;2023-03-01T02:33:37;5.22;75.08
9861;DHT22;4969;52.304;4.968;2023-03-01T02:36:08;5.02;74.09
9861;DHT22;4969;52.304;4.968;2023-03-01T02:38:35;4.97;72.86
9861;DHT22;4969;52.304;4.968;2023-03-01T02:41:02;4.45;72.43
9861;DHT22;4969;52.304;4.968;2023-03-01T02:43:32;4.40;73.03
9861;DHT22;4969;52.304;4.968;2023-03-01T02:46:03;5.07;75.15
9861;DHT22;4969;52.304;4.968;2023-03-01T02:48:40;4.85;72.52
9861;DHT22;4969;52.304;4.968;2023-03-01T02:51:12;4.87;74.26
9861;DHT22;4969;52.304;4.968;2023-03-01T02:53:50;5.08;74.16
9861;DHT22;4969;52.304;4.968;2023-03-01T02:56:19;4.92;71.99
9861;DHT22;4969;52.304;4.968;2023-03-01T02:58:47;4.73;71.56
9861;DHT22;4969;52.304;4.968;2023-03-01T03:01:16;4.98;72.71
9861;DHT22;4969;52.304;4.968;2023-03-01T03:03:43;4.74;71.34
9861;DHT22;4969;52.304;4.968;2023-03-01T03:06:10;4.19;71.68
9861;DHT22;4969;52.304;4.968;2023-03-01T03:08:36;4.12;72.57
9861;DHT22;4969;52.304;4.968;2023-03-01T03:11:03;4.15;73.52
9861;DHT22;4969;52.304;4.968;2023-03-01T03:13:30;4.53;74.37
9861;DHT22;4969;52.304;4.968;2023-03-01T03:15:58;4.43;73.70
9861;DHT22;4969;52.304;4.968;2023-03-01T03:18:25;5.42;75.33
9861;DHT22;4969;52.304;4.968;2023-03-01T03:20:52;4.98;72.13
9861;DHT22;4969;52.304;4.968;2023-03-01T03:23:19;4.71;73.61
9861;DHT22;4969;52.304;4.968;2023-03-01T03:25:48;4.45;72.47
9861;DHT22;4969;52.304;4.968;2023-03-01T03:28:15;4.56;73.85
9861;DHT22;4969;52.304;4.968;2023-03-01T03:30:42;4.63;73.40
9861;DHT22;4969;52.304;4.968;2023-03-01T03:33:11;4.77;73.30
9861;DHT22;4969;52.304;4.968;2023-03-01T03:35:41;4.85;73.01
9861;DHT22;4969;52.304;4.968;2023-03-01T03:38:10;5.12;73.02
9861;DHT22;4969;52.304;4.968;2023-03-01T03:40:42;5.25;72.01
9861;DHT22;4969;52.304;4.968;2023-03-01T03:43:11;5.25;70.74
9861;DHT22;4969;52.304;4.968;2023-03-01T03:45:38;5.54;72.81
9861;DHT22;4969;52.304;4.968;2023-03-01T03:48:07;5.53;71.48
9861;DHT22;4969;52.304;4.968;2023-03-01T03:50:35;5.47;71.51
9861;DHT22;4969;52.304;4.968;2023-03-01T03:53:04;5.01;69.13
9861;DHT22;4969;52.304;4.968;2023-03-01T03:55:31;4.73;71.46
9861;DHT22;4969;52.304;4.968;2023-03-01T03:58:00;4.84;70.45
9861;DHT22;4969;52.304;4.968;2023-03-01T04:00:32;5.01;70.91
9861;DHT22;4969;52.304;4.968;2023-03-01T04:02:59;5.36;71.14
9861;DHT22;4969;52.304;4.968;2023-03-01T04:05:26;5.29;70.40
9861;DHT22;4969;52.304;4.968;2023-03-01T04:07:55;4.99;69.45
9861;DHT22;4969;52.304;4.968;2023-03-01T04:10:27;4.59;69.42
9861;DHT22;4969;52.304;4.968;2023-03-01T04:12:54;4.87;70.61
9861;DHT22;4969;52.304;4.968;2023-03-01T04:15:22;5.46;71.67
9861;DHT22;4969;52.304;4.968;2023-03-01T04:17:50;4.91;69.25
9861;DHT22;4969;52.304;4.968;2023-03-01T04:20:20;5.12;69.78
9861;DHT22;4969;52.304;4.968;2023-03-01T04:22:50;5.53;71.00
9861;DHT22;4969;52.304;4.968;2023-03-01T04:25:18;5.05;69.21
9861;DHT22;4969;52.304;4.968;2023-03-01T04:27:45;4.87;69.27
9861;DHT22;4969;52.304;4.968;2023-03-01T04:30:12;5.43;70.48
9861;DHT22;4969;52.304;4.968;2023-03-01T04:32:38;5.98;73.89
9861;DHT22;4969;52.304;4.968;2023-03-01T04:35:05;5.97;72.76
9861;DHT22;4969;52.304;4.968;2023-03-01T04:37:32;5.42;69.39
9861;DHT22;4969;52.304;4.968;2023-03-01T04:40:00;6.22;73.62
9861;DHT22;4969;52.304;4.968;2023-03-01T04:42:31;5.80;69.67
9861;DHT22;4969;52.304;4.968;2023-03-01T04:44:57;5.05;68.84
9861;DHT22;4969;52.304;4.968;2023-03-01T04:47:24;4.64;68.63
9861;DHT22;4969;52.304;4.968;2023-03-01T04:49:50;4.50;69.15
9861;DHT22;4969;52.304;4.968;2023-03-01T04:52:17;2.90;69.02
9861;DHT22;4969;52.304;4.968;2023-03-01T04:54:44;4.29;78.36
9861;DHT22;4969;52.304;4.968;2023-03-01T04:57:11;4.66;71.31
9861;DHT22;4969;52.304;4.968;2023-03-01T04:59:38;3.74;69.12
9861;DHT22;4969;52.304;4.968;2023-03-01T05:02:05;5.26;74.93
9861;DHT22;4969;52.304;4.968;2023-03-01T05:04:31;5.99;77.38
9861;DHT22;4969;52.304;4.968;2023-03-01T05:06:58;6.03;71.56
9861;DHT22;4969;52.304;4.968;2023-03-01T05:09:25;4.39;67.96
9861;DHT22;4969;52.304;4.968;2023-03-01T05:11:51;3.59;70.61
9861;DHT22;4969;52.304;4.968;2023-03-01T05:14:18;4.22;73.31
9861;DHT22;4969;52.304;4.968;2023-03-01T05:16:45;6.05;76.37
9861;DHT22;4969;52.304;4.968;2023-03-01T05:19:12;5.20;70.01
9861;DHT22;4969;52.304;4.968;2023-03-01T05:21:40;4.81;72.07
9861;DHT22;4969;52.304;4.968;2023-03-01T05:24:21;4.30;67.75
9861;DHT22;4969;52.304;4.968;2023-03-01T05:26:47;4.15;70.40
9861;DHT22;4969;52.304;4.968;2023-03-01T05:29:14;4.14;71.41
9861;DHT22;4969;52.304;4.968;2023-03-01T05:31:40;4.08;71.39
9861;DHT22;4969;52.304;4.968;2023-03-01T05:34:09;4.29;71.49
9861;DHT22;4969;52.304;4.968;2023-03-01T05:36:38;3.71;70.11
9861;DHT22;4969;52.304;4.968;2023-03-01T05:39:04;2.79;69.71
9861;DHT22;4969;52.304;4.968;2023-03-01T05:41:31;2.00;72.02
9861;DHT22;4969;52.304;4.968;2023-03-01T05:43:57;1.48;73.67
9861;DHT22;4969;52.304;4.968;2023-03-01T05:46:24;1.15;74.99
9861;DHT22;4969;52.304;4.968;2023-03-01T05:48:50;0.91;75.69
9861;DHT22;4969;52.304;4.968;2023-03-01T05:51:18;0.93;76.37
9861;DHT22;4969;52.304;4.968;2023-03-01T05:53:45;0.81;76.63
9861;DHT22;4969;52.304;4.968;2023-03-01T05:56:11;0.81;77.10
9861;DHT22;4969;52.304;4.968;2023-03-01T05:58:38;0.86;77.72
9861;DHT22;4969;52.304;4.968;2023-03-01T06:01:04;0.86;77.77
9861;DHT22;4969;52.304;4.968;2023-03-01T06:03:31;0.79;78.29
9861;DHT22;4969;52.304;4.968;2023-03-01T06:05:58;0.76;78.70
9861;DHT22;4969;52.304;4.968;2023-03-01T06:08:25;0.62;78.51
9861;DHT22;4969;52.304;4.968;2023-03-01T06:10:52;0.72;79.67
9861;DHT22;4969;52.304;4.968;2023-03-01T06:13:19;0.72;79.41
9861;DHT22;4969;52.304;4.968;2023-03-01T06:15:46;0.55;79.10
9861;DHT22;4969;52.304;4.968;2023-03-01T06:18:12;0.81;80.67
9861;DHT22;4969;52.304;4.968;2023-03-01T06:20:39;1.00;80.72
9861;DHT22;4969;52.304;4.968;2023-03-01T06:23:05;1.04;80.82
9861;DHT22;4969;52.304;4.968;2023-03-01T06:25:33;1.12;81.18
9861;DHT22;4969;52.304;4.968;2023-03-01T06:28:00;1.01;81.10
9861;DHT22;4969;52.304;4.968;2023-03-01T06:30:27;0.89;80.75
9861;DHT22;4969;52.304;4.968;2023-03-01T06:32:53;0.77;81.13
9861;DHT22;4969;52.304;4.968;2023-03-01T06:35:26;0.77;80.84
9861;DHT22;4969;52.304;4.968;2023-03-01T06:37:55;0.69;80.56
9861;DHT22;4969;52.304;4.968;2023-03-01T06:40:23;0.62;80.58
9861;DHT22;4969;52.304;4.968;2023-03-01T06:42:52;0.63;80.68
9861;DHT22;4969;52.304;4.968;2023-03-01T06:45:19;0.73;80.65
9861;DHT22;4969;52.304;4.968;2023-03-01T06:47:47;0.68;80.30
9861;DHT22;4969;52.304;4.968;2023-03-01T06:50:14;0.66;80.45
9861;DHT22;4969;52.304;4.968;2023-03-01T06:52:41;0.66;80.42
9861;DHT22;4969;52.304;4.968;2023-03-01T06:55:09;0.68;80.34
9861;DHT22;4969;52.304;4.968;2023-03-01T06:57:35;0.60;79.98
9861;DHT22;4969;52.304;4.968;2023-03-01T07:00:04;0.58;79.82
9861;DHT22;4969;52.304;4.968;2023-03-01T07:02:32;0.51;80.04
9861;DHT22;4969;52.304;4.968;2023-03-01T07:04:58;0.51;79.98
9861;DHT22;4969;52.304;4.968;2023-03-01T07:07:25;0.51;80.02
9861;DHT22;4969;52.304;4.968;2023-03-01T07:09:52;0.58;80.03
9861;DHT22;4969;52.304;4.968;2023-03-01T07:12:19;0.60;79.66
9861;DHT22;4969;52.304;4.968;2023-03-01T07:14:46;0.53;79.50
9861;DHT22;4969;52.304;4.968;2023-03-01T07:17:13;0.66;79.95
9861;DHT22;4969;52.304;4.968;2023-03-01T07:19:40;0.68;80.13
9861;DHT22;4969;52.304;4.968;2023-03-01T07:22:06;0.60;80.05
9861;DHT22;4969;52.304;4.968;2023-03-01T07:24:34;0.73;80.41
9861;DHT22;4969;52.304;4.968;2023-03-01T07:27:01;0.97;80.58
9861;DHT22;4969;52.304;4.968;2023-03-01T07:29:27;0.86;80.08
9861;DHT22;4969;52.304;4.968;2023-03-01T07:31:55;1.23;81.47
9861;DHT22;4969;52.304;4.968;2023-03-01T07:34:22;1.07;80.53
9861;DHT22;4969;52.304;4.968;2023-03-01T07:36:49;1.05;80.79
9861;DHT22;4969;52.304;4.968;2023-03-01T07:39:16;1.14;81.48
9861;DHT22;4969;52.304;4.968;2023-03-01T07:41:42;1.31;82.10
9861;DHT22;4969;52.304;4.968;2023-03-01T07:44:09;1.35;82.10
9861;DHT22;4969;52.304;4.968;2023-03-01T07:46:36;1.38;82.64
9861;DHT22;4969;52.304;4.968;2023-03-01T07:49:02;1.58;83.25
9861;DHT22;4969;52.304;4.968;2023-03-01T07:51:31;1.76;83.31
9861;DHT22;4969;52.304;4.968;2023-03-01T07:53:57;1.77;82.99
9861;DHT22;4969;52.304;4.968;2023-03-01T07:56:24;1.81;83.15
9861;DHT22;4969;52.304;4.968;2023-03-01T07:58:50;1.98;83.33
9861;DHT22;4969;52.304;4.968;2023-03-01T08:01:19;2.62;84.55
9861;DHT22;4969;52.304;4.968;2023-03-01T08:03:46;2.62;82.26
9861;DHT22;4969;52.304;4.968;2023-03-01T08:06:14;2.28;82.32
9861;DHT22;4969;52.304;4.968;2023-03-01T08:08:43;2.31;82.99
9861;DHT22;4969;52.304;4.968;2023-03-01T08:11:11;2.28;83.51
9861;DHT22;4969;52.304;4.968;2023-03-01T08:13:38;2.28;84.26
9861;DHT22;4969;52.304;4.968;2023-03-01T08:16:07;2.36;84.39
9861;DHT22;4969;52.304;4.968;2023-03-01T08:18:34;2.45;84.52
9861;DHT22;4969;52.304;4.968;2023-03-01T08:21:04;2.45;84.59
9861;DHT22;4969;52.304;4.968;2023-03-01T08:23:31;2.46;85.06
9861;DHT22;4969;52.304;4.968;2023-03-01T08:26:08;2.55;85.29
9861;DHT22;4969;52.304;4.968;2023-03-01T08:28:35;2.64;85.01
9861;DHT22;4969;52.304;4.968;2023-03-01T08:31:02;2.70;84.94
9861;DHT22;4969;52.304;4.968;2023-03-01T08:33:29;2.81;84.90
9861;DHT22;4969;52.304;4.968;2023-03-01T08:36:03;2.85;84.90
9861;DHT22;4969;52.304;4.968;2023-03-01T08:38:32;2.93;84.96
9861;DHT22;4969;52.304;4.968;2023-03-01T08:40:59;3.00;85.14
9861;DHT22;4969;52.304;4.968;2023-03-01T08:43:27;3.11;84.96
9861;DHT22;4969;52.304;4.968;2023-03-01T08:45:54;3.07;84.72
9861;DHT22;4969;52.304;4.968;2023-03-01T08:48:20;3.15;84.95
9861;DHT22;4969;52.304;4.968;2023-03-01T08:50:47;3.12;85.02
9861;DHT22;4969;52.304;4.968;2023-03-01T08:53:13;3.16;84.89
9861;DHT22;4969;52.304;4.968;2023-03-01T08:55:40;3.15;84.85
9861;DHT22;4969;52.304;4.968;2023-03-01T08:58:07;3.13;85.10
9861;DHT22;4969;52.304;4.968;2023-03-01T09:00:34;3.04;84.95
9861;DHT22;4969;52.304;4.968;2023-03-01T09:03:01;3.36;85.30
9861;DHT22;4969;52.304;4.968;2023-03-01T09:05:28;3.29;84.53
9861;DHT22;4969;52.304;4.968;2023-03-01T09:07:57;3.29;84.75
9861;DHT22;4969;52.304;4.968;2023-03-01T09:10:23;3.42;84.55
9861;DHT22;4969;52.304;4.968;2023-03-01T09:12:51;3.50;84.60
9861;DHT22;4969;52.304;4.968;2023-03-01T09:15:17;3.56;84.38
9861;DHT22;4969;52.304;4.968;2023-03-01T09:17:45;3.57;84.20
9861;DHT22;4969;52.304;4.968;2023-03-01T09:20:12;3.71;84.22
9861;DHT22;4969;52.304;4.968;2023-03-01T09:22:39;3.81;83.69
9861;DHT22;4969;52.304;4.968;2023-03-01T09:25:06;3.94;82.92
9861;DHT22;4969;52.304;4.968;2023-03-01T09:27:32;3.88;81.49
9861;DHT22;4969;52.304;4.968;2023-03-01T09:29:59;3.97;80.27
9861;DHT22;4969;52.304;4.968;2023-03-01T09:32:26;4.08;80.22
9861;DHT22;4969;52.304;4.968;2023-03-01T09:34:53;4.53;77.46
9861;DHT22;4969;52.304;4.968;2023-03-01T09:37:33;6.50;81.73
9861;DHT22;4969;52.304;4.968;2023-03-01T09:40:00;4.95;72.64
9861;DHT22;4969;52.304;4.968;2023-03-01T09:42:29;4.59;75.16
9861;DHT22;4969;52.304;4.968;2023-03-01T09:45:02;4.37;75.50
9861;DHT22;4969;52.304;4.968;2023-03-01T09:47:31;4.49;73.60
9861;DHT22;4969;52.304;4.968;2023-03-01T09:50:05;4.36;73.34
9861;DHT22;4969;52.304;4.968;2023-03-01T09:52:36;4.08;77.07
9861;DHT22;4969;52.304;4.968;2023-03-01T09:55:10;4.83;78.85
9861;DHT22;4969;52.304;4.968;2023-03-01T09:57:43;4.15;76.01
9861;DHT22;4969;52.304;4.968;2023-03-01T10:00:20;4.16;76.81
9861;DHT22;4969;52.304;4.968;2023-03-01T10:02:51;3.83;77.65
9861;DHT22;4969;52.304;4.968;2023-03-01T10:05:31;3.87;78.83
9861;DHT22;4969;52.304;4.968;2023-03-01T10:08:13;4.11;77.19
9861;DHT22;4969;52.304;4.968;2023-03-01T10:10:46;6.10;81.18
9861;DHT22;4969;52.304;4.968;2023-03-01T10:13:17;5.25;75.60
9861;DHT22;4969;52.304;4.968;2023-03-01T10:15:50;4.83;75.98
9861;DHT22;4969;52.304;4.968;2023-03-01T10:18:22;7.74;82.08
9861;DHT22;4969;52.304;4.968;2023-03-01T10:20:53;7.58;68.47
9861;DHT22;4969;52.304;4.968;2023-03-01T10:23:20;6.01;70.15
9861;DHT22;4969;52.304;4.968;2023-03-01T10:25:57;5.59;70.31
9861;DHT22;4969;52.304;4.968;2023-03-01T10:28:31;5.60;71.05
9861;DHT22;4969;52.304;4.968;2023-03-01T10:31:03;5.13;72.84
9861;DHT22;4969;52.304;4.968;2023-03-01T10:33:32;5.07;72.65
9861;DHT22;4969;52.304;4.968;2023-03-01T10:36:00;4.76;73.82
9861;DHT22;4969;52.304;4.968;2023-03-01T10:38:30;4.78;77.81
9861;DHT22;4969;52.304;4.968;2023-03-01T10:40:58;4.54;75.30
9861;DHT22;4969;52.304;4.968;2023-03-01T10:43:29;4.66;75.14
9861;DHT22;4969;52.304;4.968;2023-03-01T10:45:58;4.81;74.01
9861;DHT22;4969;52.304;4.968;2023-03-01T10:48:26;5.04;73.29
9861;DHT22;4969;52.304;4.968;2023-03-01T10:51:06;5.80;74.20
9861;DHT22;4969;52.304;4.968;2023-03-01T10:53:35;6.32;76.43
9861;DHT22;4969;52.304;4.968;2023-03-01T10:56:04;6.67;73.64
9861;DHT22;4969;52.304;4.968;2023-03-01T10:58:33;5.56;72.00
9861;DHT22;4969;52.304;4.968;2023-03-01T11:01:01;6.92;81.99
9861;DHT22;4969;52.304;4.968;2023-03-01T11:03:30;7.37;65.53
9861;DHT22;4969;52.304;4.968;2023-03-01T11:06:00;6.05;68.68
9861;DHT22;4969;52.304;4.968;2023-03-01T11:08:34;6.33;70.42
9861;DHT22;4969;52.304;4.968;2023-03-01T11:11:06;5.85;70.16
9861;DHT22;4969;52.304;4.968;2023-03-01T11:13:39;5.74;70.34
9861;DHT22;4969;52.304;4.968;2023-03-01T11:16:13;5.75;68.24
9861;DHT22;4969;52.304;4.968;2023-03-01T11:18:40;6.28;74.42
9861;DHT22;4969;52.304;4.968;2023-03-01T11:21:07;6.29;69.62
9861;DHT22;4969;52.304;4.968;2023-03-01T11:23:46;7.48;63.98
9861;DHT22;4969;52.304;4.968;2023-03-01T11:26:13;7.03;64.62
9861;DHT22;4969;52.304;4.968;2023-03-01T11:28:42;6.57;64.80
9861;DHT22;4969;52.304;4.968;2023-03-01T11:31:11;6.48;63.97
9861;DHT22;4969;52.304;4.968;2023-03-01T11:33:42;6.43;64.68
9861;DHT22;4969;52.304;4.968;2023-03-01T11:36:16;5.59;64.14
9861;DHT22;4969;52.304;4.968;2023-03-01T11:38:47;5.66;66.21
9861;DHT22;4969;52.304;4.968;2023-03-01T11:41:15;5.85;62.95
9861;DHT22;4969;52.304;4.968;2023-03-01T11:43:49;5.51;64.33
9861;DHT22;4969;52.304;4.968;2023-03-01T11:46:45;5.51;64.83
9861;DHT22;4969;52.304;4.968;2023-03-01T11:52:09;5.92;63.47
9861;DHT22;4969;52.304;4.968;2023-03-01T11:54:49;5.66;63.71
9861;DHT22;4969;52.304;4.968;2023-03-01T11:57:32;5.57;63.37
9861;DHT22;4969;52.304;4.968;2023-03-01T12:00:11;5.87;62.31
9861;DHT22;4969;52.304;4.968;2023-03-01T12:03:16;5.74;65.66
9861;DHT22;4969;52.304;4.968;2023-03-01T12:06:14;6.02;64.32
9861;DHT22;4969;52.304;4.968;2023-03-01T12:08:56;5.88;63.80
9861;DHT22;4969;52.304;4.968;2023-03-01T12:11:37;5.77;63.77
9861;DHT22;4969;52.304;4.968;2023-03-01T12:14:28;5.97;63.70
9861;DHT22;4969;52.304;4.968;2023-03-01T12:17:14;6.05;64.19
9861;DHT22;4969;52.304;4.968;2023-03-01T12:20:01;6.46;61.79
9861;DHT22;4969;52.304;4.968;2023-03-01T12:22:30;6.64;60.66
9861;DHT22;4969;52.304;4.968;2023-03-01T12:25:13;6.68;62.94
9861;DHT22;4969;52.304;4.968;2023-03-01T12:27:55;8.17;61.86
9861;DHT22;4969;52.304;4.968;2023-03-01T12:30:33;6.70;59.98
9861;DHT22;4969;52.304;4.968;2023-03-01T12:33:13;6.58;61.25
9861;DHT22;4969;52.304;4.968;2023-03-01T12:35:57;6.70;61.47
9861;DHT22;4969;52.304;4.968;2023-03-01T12:38:37;6.70;60.92
9861;DHT22;4969;52.304;4.968;2023-03-01T12:41:21;6.20;59.59
9861;DHT22;4969;52.304;4.968;2023-03-01T12:44:01;7.79;67.14
9861;DHT22;4969;52.304;4.968;2023-03-01T12:46:41;8.16;57.78
9861;DHT22;4969;52.304;4.968;2023-03-01T12:49:14;7.71;61.65
9861;DHT22;4969;52.304;4.968;2023-03-01T12:51:46;7.92;75.19
9861;DHT22;4969;52.304;4.968;2023-03-01T12:54:17;7.94;57.91
9861;DHT22;4969;52.304;4.968;2023-03-01T12:56:47;6.63;60.38
9861;DHT22;4969;52.304;4.968;2023-03-01T12:59:22;6.43;61.32
9861;DHT22;4969;52.304;4.968;2023-03-01T13:01:55;6.12;62.25
9861;DHT22;4969;52.304;4.968;2023-03-01T13:04:40;6.02;60.81
9861;DHT22;4969;52.304;4.968;2023-03-01T13:07:22;6.40;59.92
9861;DHT22;4969;52.304;4.968;2023-03-01T13:09:55;6.81;62.36
9861;DHT22;4969;52.304;4.968;2023-03-01T13:12:47;6.98;62.20
9861;DHT22;4969;52.304;4.968;2023-03-01T13:15:31;7.67;56.77
9861;DHT22;4969;52.304;4.968;2023-03-01T13:17:59;7.43;60.88
9861;DHT22;4969;52.304;4.968;2023-03-01T13:20:30;7.01;58.50
9861;DHT22;4969;52.304;4.968;2023-03-01T13:23:07;8.26;69.35
9861;DHT22;4969;52.304;4.968;2023-03-01T13:25:35;9.17;62.12
9861;DHT22;4969;52.304;4.968;2023-03-01T13:28:37;8.76;56.06
9861;DHT22;4969;52.304;4.968;2023-03-01T13:31:08;8.91;72.61
9861;DHT22;4969;52.304;4.968;2023-03-01T13:33:43;8.20;61.24
9861;DHT22;4969;52.304;4.968;2023-03-01T13:36:13;8.07;55.50
9861;DHT22;4969;52.304;4.968;2023-03-01T13:39:00;7.43;59.26
9861;DHT22;4969;52.304;4.968;2023-03-01T13:41:49;7.91;60.59
9861;DHT22;4969;52.304;4.968;2023-03-01T13:44:21;7.55;57.42
9861;DHT22;4969;52.304;4.968;2023-03-01T13:46:50;7.64;60.94
9861;DHT22;4969;52.304;4.968;2023-03-01T13:49:20;7.37;59.73
9861;DHT22;4969;52.304;4.968;2023-03-01T13:51:49;7.68;62.84
9861;DHT22;4969;52.304;4.968;2023-03-01T13:54:20;9.15;55.03
9861;DHT22;4969;52.304;4.968;2023-03-01T13:56:50;7.92;54.11
9861;DHT22;4969;52.304;4.968;2023-03-01T13:59:19;7.61;57.67
9861;DHT22;4969;52.304;4.968;2023-03-01T14:01:53;7.43;57.02
9861;DHT22;4969;52.304;4.968;2023-03-01T14:04:22;7.57;57.69
9861;DHT22;4969;52.304;4.968;2023-03-01T14:06:49;8.44;63.53
9861;DHT22;4969;52.304;4.968;2023-03-01T14:09:17;8.13;57.10
9861;DHT22;4969;52.304;4.968;2023-03-01T14:12:05;7.75;57.30
9861;DHT22;4969;52.304;4.968;2023-03-01T14:14:42;8.29;53.88
9861;DHT22;4969;52.304;4.968;2023-03-01T14:20:12;8.45;55.19
9861;DHT22;4969;52.304;4.968;2023-03-01T14:22:40;9.47;53.51
9861;DHT22;4969;52.304;4.968;2023-03-01T14:25:20;13.38;63.14
9861;DHT22;4969;52.304;4.968;2023-03-01T14:27:56;11.19;58.91
9861;DHT22;4969;52.304;4.968;2023-03-01T14:30:25;9.09;61.55
9861;DHT22;4969;52.304;4.968;2023-03-01T14:32:55;9.26;56.55
9861;DHT22;4969;52.304;4.968;2023-03-01T14:35:24;9.36;52.52
9861;DHT22;4969;52.304;4.968;2023-03-01T14:37:51;8.58;51.06
9861;DHT22;4969;52.304;4.968;2023-03-01T14:40:24;9.85;50.61
9861;DHT22;4969;52.304;4.968;2023-03-01T14:42:52;9.93;56.89
9861;DHT22;4969;52.304;4.968;2023-03-01T14:45:20;8.87;54.18
9861;DHT22;4969;52.304;4.968;2023-03-01T14:47:47;8.75;53.76
9861;DHT22;4969;52.304;4.968;2023-03-01T14:50:21;8.05;55.11
9861;DHT22;4969;52.304;4.968;2023-03-01T14:52:50;8.96;60.50
9861;DHT22;4969;52.304;4.968;2023-03-01T14:55:18;8.13;54.27
9861;DHT22;4969;52.304;4.968;2023-03-01T14:57:47;9.26;53.61
9861;DHT22;4969;52.304;4.968;2023-03-01T15:00:18;7.65;56.67
9861;DHT22;4969;52.304;4.968;2023-03-01T15:02:47;8.17;59.28
9861;DHT22;4969;52.304;4.968;2023-03-01T15:05:15;7.60;56.79
9861;DHT22;4969;52.304;4.968;2023-03-01T15:07:45;7.77;58.68
9861;DHT22;4969;52.304;4.968;2023-03-01T15:10:19;7.85;55.65
9861;DHT22;4969;52.304;4.968;2023-03-01T15:12:46;8.29;55.81
9861;DHT22;4969;52.304;4.968;2023-03-01T15:15:22;9.34;54.35
9861;DHT22;4969;52.304;4.968;2023-03-01T15:17:53;9.23;54.48
9861;DHT22;4969;52.304;4.968;2023-03-01T15:20:24;9.72;52.00
9861;DHT22;4969;52.304;4.968;2023-03-01T15:22:54;9.58;63.88
9861;DHT22;4969;52.304;4.968;2023-03-01T15:25:23;11.02;67.27
9861;DHT22;4969;52.304;4.968;2023-03-01T15:27:52;10.24;56.33
9861;DHT22;4969;52.304;4.968;2023-03-01T15:30:22;10.45;72.02
9861;DHT22;4969;52.304;4.968;2023-03-01T15:33:16;8.85;50.65
9861;DHT22;4969;52.304;4.968;2023-03-01T15:35:45;10.13;69.31
9861;DHT22;4969;52.304;4.968;2023-03-01T15:38:32;9.98;59.33
9861;DHT22;4969;52.304;4.968;2023-03-01T15:41:00;10.51;51.45
9861;DHT22;4969;52.304;4.968;2023-03-01T15:43:45;8.93;52.12
9861;DHT22;4969;52.304;4.968;2023-03-01T15:46:20;8.91;56.31
9861;DHT22;4969;52.304;4.968;2023-03-01T15:48:51;9.66;56.01
9861;DHT22;4969;52.304;4.968;2023-03-01T15:51:22;9.54;60.44
9861;DHT22;4969;52.304;4.968;2023-03-01T15:53:52;11.00;57.56
9861;DHT22;4969;52.304;4.968;2023-03-01T15:56:19;10.88;48.89
9861;DHT22;4969;52.304;4.968;2023-03-01T15:58:45;9.50;46.85
9861;DHT22;4969;52.304;4.968;2023-03-01T16:01:14;10.03;64.29
9861;DHT22;4969;52.304;4.968;2023-03-01T16:03:41;10.36;51.17
9861;DHT22;4969;52.304;4.968;2023-03-01T16:06:09;9.86;69.75
9861;DHT22;4969;52.304;4.968;2023-03-01T16:08:35;10.61;57.20
9861;DHT22;4969;52.304;4.968;2023-03-01T16:11:04;9.48;61.97
9861;DHT22;4969;52.304;4.968;2023-03-01T16:13:32;8.72;57.18
9861;DHT22;4969;52.304;4.968;2023-03-01T16:15:58;8.29;55.56
9861;DHT22;4969;52.304;4.968;2023-03-01T16:18:25;8.92;58.13
9861;DHT22;4969;52.304;4.968;2023-03-01T16:20:52;9.47;64.48
9861;DHT22;4969;52.304;4.968;2023-03-01T16:23:19;9.19;62.58
9861;DHT22;4969;52.304;4.968;2023-03-01T16:25:46;8.88;54.73
9861;DHT22;4969;52.304;4.968;2023-03-01T16:28:14;9.57;63.13
9861;DHT22;4969;52.304;4.968;2023-03-01T16:30:45;9.93;58.60
9861;DHT22;4969;52.304;4.968;2023-03-01T16:33:12;9.48;50.23
9861;DHT22;4969;52.304;4.968;2023-03-01T16:35:40;10.58;66.70
9861;DHT22;4969;52.304;4.968;2023-03-01T16:38:06;10.74;43.36
9861;DHT22;4969;52.304;4.968;2023-03-01T16:40:33;10.54;52.13